sensor_id;sensor_type;location;lat;lon;timestamp;P1;durP1;ratioP1;P2;durP2;ratioP2
2934;SDS011;2462;51.456;7.248;2022-07-24T00:00:03;7.63;;;6.77;;
2934;SDS011;2462;51.456;7.248;2022-07-24T00:02:30;7.77;;;6.73;;
2934;SDS011;2462;51.456;7.248;2022-07-24T00:04:56;10.90;;;5.97;;
2934;SDS011;2462;51.456;7.248;2022-07-24T00:07:22;7.30;;;6.60;;
2934;SDS011;2462;51.456;7.248;2022-07-24T00:09:47;8.33;;;5.90;;
2934;SDS011;2462;51.456;7.248;2022-07-24T00:12:13;5.73;;;5.00;;
2934;SDS011;2462;51.456;7.248;2022-07-24T00:14:38;10.17;;;5.80;;
2934;SDS011;2462;51.456;7.248;2022-07-24T00:17:04;5.90;;;5.30;;
2934;SDS011;2462;51.456;7.248;2022-07-24T00:19:29;8.37;;;5.10;;
2934;SDS011;2462;51.456;7.248;2022-07-24T00:21:55;7.30;;;5.40;;
2934;SDS011;2462;51.456;7.248;2022-07-24T00:24:22;4.80;;;4.40;;
2934;SDS011;2462;51.456;7.248;2022-07-24T00:26:47;5.80;;;5.30;;
2934;SDS011;2462;51.456;7.248;2022-07-24T00:29:13;7.90;;;5.30;;
2934;SDS011;2462;51.456;7.248;2022-07-24T00:31:38;7.20;;;4.20;;
2934;SDS011;2462;51.456;7.248;2022-07-24T00:34:04;5.50;;;5.00;;
2934;SDS011;2462;51.456;7.248;2022-07-24T00:36:30;5.60;;;5.00;;
2934;SDS011;2462;51.456;7.248;2022-07-24T00:38:55;4.50;;;4.10;;
2934;SDS011;2462;51.456;7.248;2022-07-24T00:41:21;8.20;;;5.80;;
2934;SDS011;2462;51.456;7.248;2022-07-24T00:46:29;5.87;;;5.17;;
2934;SDS011;2462;51.456;7.248;2022-07-24T00:48:56;6.63;;;6.03;;
2934;SDS011;2462;51.456;7.248;2022-07-24T00:51:22;7.37;;;6.10;;
2934;SDS011;2462;51.456;7.248;2022-07-24T00:53:48;7.27;;;6.30;;
2934;SDS011;2462;51.456;7.248;2022-07-24T00:56:14;11.33;;;7.33;;
2934;SDS011;2462;51.456;7.248;2022-07-24T00:58:39;9.30;;;8.10;;
2934;SDS011;2462;51.456;7.248;2022-07-24T01:01:05;10.87;;;9.50;;
2934;SDS011;2462;51.456;7.248;2022-07-24T01:03:30;12.00;;;10.07;;
2934;SDS011;2462;51.456;7.248;2022-07-24T01:05:56;11.43;;;10.30;;
2934;SDS011;2462;51.456;7.248;2022-07-24T01:08:22;12.93;;;11.53;;
2934;SDS011;2462;51.456;7.248;2022-07-24T01:10:49;11.73;;;10.33;;
2934;SDS011;2462;51.456;7.248;2022-07-24T01:13:14;11.20;;;9.90;;
2934;SDS011;2462;51.456;7.248;2022-07-24T01:15:40;10.27;;;8.37;;
2934;SDS011;2462;51.456;7.248;2022-07-24T01:18:06;9.93;;;8.93;;
2934;SDS011;2462;51.456;7.248;2022-07-24T01:20:35;16.27;;;9.90;;
2934;SDS011;2462;51.456;7.248;2022-07-24T01:23:02;11.83;;;10.63;;
2934;SDS011;2462;51.456;7.248;2022-07-24T01:25:28;15.20;;;10.90;;
2934;SDS011;2462;51.456;7.248;2022-07-24T01:27:53;18.93;;;11.70;;
2934;SDS011;2462;51.456;7.248;2022-07-24T01:30:19;16.60;;;13.00;;
2934;SDS011;2462;51.456;7.248;2022-07-24T01:32:45;13.67;;;12.10;;
2934;SDS011;2462;51.456;7.248;2022-07-24T01:35:10;16.07;;;11.00;;
2934;SDS011;2462;51.456;7.248;2022-07-24T01:37:36;13.13;;;10.80;;
2934;SDS011;2462;51.456;7.248;2022-07-24T01:40:01;10.90;;;9.10;;
2934;SDS011;2462;51.456;7.248;2022-07-24T01:42:27;10.70;;;8.83;;
2934;SDS011;2462;51.456;7.248;2022-07-24T01:44:53;10.43;;;8.17;;
2934;SDS011;2462;51.456;7.248;2022-07-24T01:47:18;9.40;;;7.20;;
2934;SDS011;2462;51.456;7.248;2022-07-24T01:49:44;8.93;;;6.60;;
2934;SDS011;2462;51.456;7.248;2022-07-24T01:52:09;7.50;;;6.60;;
2934;SDS011;2462;51.456;7.248;2022-07-24T01:54:35;6.73;;;5.47;;
2934;SDS011;2462;51.456;7.248;2022-07-24T01:57:00;6.70;;;5.50;;
2934;SDS011;2462;51.456;7.248;2022-07-24T01:59:26;5.90;;;5.40;;
2934;SDS011;2462;51.456;7.248;2022-07-24T02:01:51;7.90;;;4.70;;
2934;SDS011;2462;51.456;7.248;2022-07-24T02:04:17;5.93;;;4.83;;
2934;SDS011;2462;51.456;7.248;2022-07-24T02:06:42;5.13;;;4.63;;
2934;SDS011;2462;51.456;7.248;2022-07-24T02:09:08;5.40;;;4.60;;
2934;SDS011;2462;51.456;7.248;2022-07-24T02:11:34;7.63;;;4.77;;
2934;SDS011;2462;51.456;7.248;2022-07-24T02:13:59;5.70;;;4.87;;
2934;SDS011;2462;51.456;7.248;2022-07-24T02:16:25;4.93;;;4.43;;
2934;SDS011;2462;51.456;7.248;2022-07-24T02:18:51;4.43;;;4.13;;
2934;SDS011;2462;51.456;7.248;2022-07-24T02:21:17;5.23;;;4.73;;
2934;SDS011;2462;51.456;7.248;2022-07-24T02:23:42;10.63;;;4.87;;
2934;SDS011;2462;51.456;7.248;2022-07-24T02:26:08;5.67;;;5.00;;
2934;SDS011;2462;51.456;7.248;2022-07-24T02:28:33;5.13;;;4.50;;
2934;SDS011;2462;51.456;7.248;2022-07-24T02:30:59;5.77;;;4.97;;
2934;SDS011;2462;51.456;7.248;2022-07-24T02:33:24;4.80;;;4.40;;
2934;SDS011;2462;51.456;7.248;2022-07-24T02:35:50;5.77;;;4.83;;
2934;SDS011;2462;51.456;7.248;2022-07-24T02:38:16;4.97;;;4.57;;
2934;SDS011;2462;51.456;7.248;2022-07-24T02:40:41;4.90;;;4.43;;
2934;SDS011;2462;51.456;7.248;2022-07-24T02:43:07;5.30;;;4.80;;
2934;SDS011;2462;51.456;7.248;2022-07-24T02:45:32;5.70;;;4.80;;
2934;SDS011;2462;51.456;7.248;2022-07-24T02:47:58;5.70;;;5.13;;
2934;SDS011;2462;51.456;7.248;2022-07-24T02:50:25;4.57;;;4.17;;
2934;SDS011;2462;51.456;7.248;2022-07-24T02:52:53;4.80;;;4.40;;
2934;SDS011;2462;51.456;7.248;2022-07-24T02:55:19;5.10;;;4.60;;
2934;SDS011;2462;51.456;7.248;2022-07-24T02:57:45;7.53;;;5.43;;
2934;SDS011;2462;51.456;7.248;2022-07-24T03:00:12;6.23;;;5.43;;
2934;SDS011;2462;51.456;7.248;2022-07-24T03:02:39;5.87;;;4.63;;
2934;SDS011;2462;51.456;7.248;2022-07-24T03:05:05;5.40;;;4.90;;
2934;SDS011;2462;51.456;7.248;2022-07-24T03:07:31;5.20;;;4.70;;
2934;SDS011;2462;51.456;7.248;2022-07-24T03:09:57;5.53;;;5.03;;
2934;SDS011;2462;51.456;7.248;2022-07-24T03:12:23;5.80;;;5.17;;
2934;SDS011;2462;51.456;7.248;2022-07-24T03:14:48;7.33;;;5.20;;
2934;SDS011;2462;51.456;7.248;2022-07-24T03:17:14;5.20;;;4.70;;
2934;SDS011;2462;51.456;7.248;2022-07-24T03:19:40;5.40;;;4.90;;
2934;SDS011;2462;51.456;7.248;2022-07-24T03:22:06;4.70;;;4.30;;
2934;SDS011;2462;51.456;7.248;2022-07-24T03:24:31;10.47;;;5.10;;
2934;SDS011;2462;51.456;7.248;2022-07-24T03:26:57;5.80;;;5.23;;
2934;SDS011;2462;51.456;7.248;2022-07-24T03:29:22;5.63;;;4.90;;
2934;SDS011;2462;51.456;7.248;2022-07-24T03:31:48;6.10;;;4.80;;
2934;SDS011;2462;51.456;7.248;2022-07-24T03:34:13;10.73;;;5.20;;
2934;SDS011;2462;51.456;7.248;2022-07-24T03:36:39;6.57;;;4.97;;
2934;SDS011;2462;51.456;7.248;2022-07-24T03:39:05;5.57;;;5.07;;
2934;SDS011;2462;51.456;7.248;2022-07-24T03:41:31;5.57;;;4.30;;
2934;SDS011;2462;51.456;7.248;2022-07-24T03:43:56;5.53;;;5.03;;
2934;SDS011;2462;51.456;7.248;2022-07-24T03:46:23;6.03;;;5.00;;
2934;SDS011;2462;51.456;7.248;2022-07-24T03:48:48;5.60;;;5.10;;
2934;SDS011;2462;51.456;7.248;2022-07-24T03:51:14;4.63;;;4.17;;
2934;SDS011;2462;51.456;7.248;2022-07-24T03:53:40;7.10;;;4.73;;
2934;SDS011;2462;51.456;7.248;2022-07-24T03:56:09;5.00;;;4.60;;
2934;SDS011;2462;51.456;7.248;2022-07-24T03:58:35;5.63;;;5.13;;
2934;SDS011;2462;51.456;7.248;2022-07-24T04:01:01;5.50;;;5.00;;
2934;SDS011;2462;51.456;7.248;2022-07-24T04:03:27;5.90;;;5.40;;
2934;SDS011;2462;51.456;7.248;2022-07-24T04:05:53;8.13;;;5.07;;
2934;SDS011;2462;51.456;7.248;2022-07-24T04:08:18;5.40;;;4.47;;
2934;SDS011;2462;51.456;7.248;2022-07-24T04:10:44;7.90;;;5.00;;
2934;SDS011;2462;51.456;7.248;2022-07-24T04:13:09;7.23;;;4.87;;
2934;SDS011;2462;51.456;7.248;2022-07-24T04:15:35;5.33;;;4.93;;
2934;SDS011;2462;51.456;7.248;2022-07-24T04:18:00;5.30;;;4.90;;
2934;SDS011;2462;51.456;7.248;2022-07-24T04:20:26;7.20;;;5.20;;
2934;SDS011;2462;51.456;7.248;2022-07-24T04:22:51;6.17;;;4.70;;
2934;SDS011;2462;51.456;7.248;2022-07-24T04:25:17;7.57;;;5.00;;
2934;SDS011;2462;51.456;7.248;2022-07-24T04:27:43;8.83;;;5.63;;
2934;SDS011;2462;51.456;7.248;2022-07-24T04:30:09;5.40;;;4.97;;
2934;SDS011;2462;51.456;7.248;2022-07-24T04:32:36;5.67;;;5.07;;
2934;SDS011;2462;51.456;7.248;2022-07-24T04:35:02;4.87;;;4.47;;
2934;SDS011;2462;51.456;7.248;2022-07-24T04:37:31;6.57;;;5.17;;
2934;SDS011;2462;51.456;7.248;2022-07-24T04:39:57;5.90;;;5.23;;
2934;SDS011;2462;51.456;7.248;2022-07-24T04:42:23;5.70;;;5.20;;
2934;SDS011;2462;51.456;7.248;2022-07-24T04:44:48;5.60;;;4.80;;
2934;SDS011;2462;51.456;7.248;2022-07-24T04:47:14;6.10;;;5.17;;
2934;SDS011;2462;51.456;7.248;2022-07-24T04:49:40;6.17;;;5.20;;
2934;SDS011;2462;51.456;7.248;2022-07-24T04:52:05;5.50;;;5.10;;
2934;SDS011;2462;51.456;7.248;2022-07-24T04:54:31;5.10;;;4.70;;
2934;SDS011;2462;51.456;7.248;2022-07-24T04:56:56;6.07;;;5.47;;
2934;SDS011;2462;51.456;7.248;2022-07-24T04:59:22;6.10;;;5.60;;
2934;SDS011;2462;51.456;7.248;2022-07-24T05:01:47;8.73;;;5.27;;
2934;SDS011;2462;51.456;7.248;2022-07-24T05:04:13;6.77;;;5.70;;
2934;SDS011;2462;51.456;7.248;2022-07-24T05:06:38;5.07;;;4.57;;
2934;SDS011;2462;51.456;7.248;2022-07-24T05:09:04;5.77;;;5.27;;
2934;SDS011;2462;51.456;7.248;2022-07-24T05:11:30;5.80;;;5.30;;
2934;SDS011;2462;51.456;7.248;2022-07-24T05:13:55;6.90;;;6.30;;
2934;SDS011;2462;51.456;7.248;2022-07-24T05:16:21;6.63;;;5.93;;
2934;SDS011;2462;51.456;7.248;2022-07-24T05:18:46;5.90;;;5.40;;
2934;SDS011;2462;51.456;7.248;2022-07-24T05:21:12;6.83;;;5.60;;
2934;SDS011;2462;51.456;7.248;2022-07-24T05:23:39;7.10;;;6.50;;
2934;SDS011;2462;51.456;7.248;2022-07-24T05:26:05;5.90;;;5.30;;
2934;SDS011;2462;51.456;7.248;2022-07-24T05:28:31;5.50;;;5.10;;
2934;SDS011;2462;51.456;7.248;2022-07-24T05:30:57;6.07;;;5.57;;
2934;SDS011;2462;51.456;7.248;2022-07-24T05:33:23;6.00;;;5.40;;
2934;SDS011;2462;51.456;7.248;2022-07-24T05:35:48;8.30;;;5.20;;
2934;SDS011;2462;51.456;7.248;2022-07-24T05:38:14;6.40;;;5.40;;
2934;SDS011;2462;51.456;7.248;2022-07-24T05:40:40;6.83;;;5.70;;
2934;SDS011;2462;51.456;7.248;2022-07-24T05:43:05;6.33;;;5.73;;
2934;SDS011;2462;51.456;7.248;2022-07-24T05:45:31;6.43;;;5.53;;
2934;SDS011;2462;51.456;7.248;2022-07-24T05:47:56;6.73;;;6.03;;
2934;SDS011;2462;51.456;7.248;2022-07-24T05:50:22;4.93;;;4.53;;
2934;SDS011;2462;51.456;7.248;2022-07-24T05:52:47;6.10;;;5.03;;
2934;SDS011;2462;51.456;7.248;2022-07-24T05:55:13;5.30;;;4.80;;
2934;SDS011;2462;51.456;7.248;2022-07-24T05:57:39;6.33;;;5.23;;
2934;SDS011;2462;51.456;7.248;2022-07-24T06:00:04;6.53;;;5.93;;
2934;SDS011;2462;51.456;7.248;2022-07-24T06:02:30;7.43;;;6.73;;
2934;SDS011;2462;51.456;7.248;2022-07-24T06:04:56;5.80;;;5.40;;
2934;SDS011;2462;51.456;7.248;2022-07-24T06:07:21;5.57;;;5.17;;
2934;SDS011;2462;51.456;7.248;2022-07-24T06:09:48;6.43;;;5.83;;
2934;SDS011;2462;51.456;7.248;2022-07-24T06:12:13;5.60;;;4.63;;
2934;SDS011;2462;51.456;7.248;2022-07-24T06:14:39;5.63;;;5.13;;
2934;SDS011;2462;51.456;7.248;2022-07-24T06:17:05;4.73;;;4.33;;
2934;SDS011;2462;51.456;7.248;2022-07-24T06:19:30;5.73;;;4.60;;
2934;SDS011;2462;51.456;7.248;2022-07-24T06:21:56;5.07;;;4.57;;
2934;SDS011;2462;51.456;7.248;2022-07-24T06:24:21;4.93;;;4.43;;
2934;SDS011;2462;51.456;7.248;2022-07-24T06:26:47;5.63;;;4.77;;
2934;SDS011;2462;51.456;7.248;2022-07-24T06:29:12;6.03;;;4.83;;
2934;SDS011;2462;51.456;7.248;2022-07-24T06:31:38;5.97;;;5.10;;
2934;SDS011;2462;51.456;7.248;2022-07-24T06:34:03;6.73;;;4.30;;
2934;SDS011;2462;51.456;7.248;2022-07-24T06:36:29;5.80;;;5.30;;
2934;SDS011;2462;51.456;7.248;2022-07-24T06:38:54;4.73;;;4.33;;
2934;SDS011;2462;51.456;7.248;2022-07-24T06:41:20;6.33;;;4.77;;
2934;SDS011;2462;51.456;7.248;2022-07-24T06:43:46;6.30;;;4.50;;
2934;SDS011;2462;51.456;7.248;2022-07-24T06:46:11;8.63;;;5.23;;
2934;SDS011;2462;51.456;7.248;2022-07-24T06:48:37;4.87;;;4.37;;
2934;SDS011;2462;51.456;7.248;2022-07-24T06:51:03;6.10;;;5.60;;
2934;SDS011;2462;51.456;7.248;2022-07-24T06:53:29;5.53;;;4.40;;
2934;SDS011;2462;51.456;7.248;2022-07-24T06:55:55;4.63;;;4.23;;
2934;SDS011;2462;51.456;7.248;2022-07-24T06:58:21;4.60;;;4.20;;
2934;SDS011;2462;51.456;7.248;2022-07-24T07:00:47;6.37;;;4.70;;
2934;SDS011;2462;51.456;7.248;2022-07-24T07:03:13;5.90;;;5.30;;
2934;SDS011;2462;51.456;7.248;2022-07-24T07:05:39;8.00;;;4.60;;
2934;SDS011;2462;51.456;7.248;2022-07-24T07:08:05;5.10;;;4.70;;
2934;SDS011;2462;51.456;7.248;2022-07-24T07:10:30;5.03;;;4.33;;
2934;SDS011;2462;51.456;7.248;2022-07-24T07:12:56;6.40;;;5.47;;
2934;SDS011;2462;51.456;7.248;2022-07-24T07:15:21;5.83;;;4.63;;
2934;SDS011;2462;51.456;7.248;2022-07-24T07:17:47;6.13;;;5.53;;
2934;SDS011;2462;51.456;7.248;2022-07-24T07:20:13;5.47;;;4.97;;
2934;SDS011;2462;51.456;7.248;2022-07-24T07:22:39;5.17;;;4.67;;
2934;SDS011;2462;51.456;7.248;2022-07-24T07:25:06;5.07;;;4.57;;
2934;SDS011;2462;51.456;7.248;2022-07-24T07:27:32;4.90;;;4.50;;
2934;SDS011;2462;51.456;7.248;2022-07-24T07:29:58;8.67;;;5.00;;
2934;SDS011;2462;51.456;7.248;2022-07-24T07:32:24;5.57;;;5.03;;
2934;SDS011;2462;51.456;7.248;2022-07-24T07:34:49;5.33;;;4.83;;
2934;SDS011;2462;51.456;7.248;2022-07-24T07:37:15;7.43;;;5.00;;
2934;SDS011;2462;51.456;7.248;2022-07-24T07:39:41;7.60;;;5.03;;
2934;SDS011;2462;51.456;7.248;2022-07-24T07:42:07;6.13;;;4.93;;
2934;SDS011;2462;51.456;7.248;2022-07-24T07:44:32;5.70;;;4.90;;
2934;SDS011;2462;51.456;7.248;2022-07-24T07:46:58;5.90;;;5.20;;
2934;SDS011;2462;51.456;7.248;2022-07-24T07:49:23;8.47;;;5.63;;
2934;SDS011;2462;51.456;7.248;2022-07-24T07:51:49;5.10;;;4.70;;
2934;SDS011;2462;51.456;7.248;2022-07-24T07:54:16;6.03;;;4.80;;
2934;SDS011;2462;51.456;7.248;2022-07-24T07:56:42;6.17;;;5.40;;
2934;SDS011;2462;51.456;7.248;2022-07-24T07:59:08;6.10;;;5.40;;
2934;SDS011;2462;51.456;7.248;2022-07-24T08:01:34;5.30;;;4.80;;
2934;SDS011;2462;51.456;7.248;2022-07-24T08:04:00;5.80;;;5.30;;
2934;SDS011;2462;51.456;7.248;2022-07-24T08:06:25;6.07;;;5.57;;
2934;SDS011;2462;51.456;7.248;2022-07-24T08:08:51;7.77;;;6.03;;
2934;SDS011;2462;51.456;7.248;2022-07-24T08:11:17;6.67;;;5.13;;
2934;SDS011;2462;51.456;7.248;2022-07-24T08:13:42;6.97;;;5.50;;
2934;SDS011;2462;51.456;7.248;2022-07-24T08:16:08;7.10;;;6.40;;
2934;SDS011;2462;51.456;7.248;2022-07-24T08:18:33;6.60;;;5.70;;
2934;SDS011;2462;51.456;7.248;2022-07-24T08:20:59;7.57;;;6.00;;
2934;SDS011;2462;51.456;7.248;2022-07-24T08:23:25;6.73;;;6.10;;
2934;SDS011;2462;51.456;7.248;2022-07-24T08:25:50;7.23;;;5.70;;
2934;SDS011;2462;51.456;7.248;2022-07-24T08:28:16;7.17;;;5.70;;
2934;SDS011;2462;51.456;7.248;2022-07-24T08:30:42;8.03;;;6.00;;
2934;SDS011;2462;51.456;7.248;2022-07-24T08:33:07;7.30;;;5.97;;
2934;SDS011;2462;51.456;7.248;2022-07-24T08:35:33;7.20;;;6.47;;
2934;SDS011;2462;51.456;7.248;2022-07-24T08:37:59;6.47;;;5.83;;
2934;SDS011;2462;51.456;7.248;2022-07-24T08:40:25;7.23;;;5.83;;
2934;SDS011;2462;51.456;7.248;2022-07-24T08:42:54;6.20;;;5.50;;
2934;SDS011;2462;51.456;7.248;2022-07-24T08:45:19;6.23;;;5.63;;
2934;SDS011;2462;51.456;7.248;2022-07-24T08:47:45;9.63;;;6.10;;
2934;SDS011;2462;51.456;7.248;2022-07-24T08:50:10;6.87;;;6.20;;
2934;SDS011;2462;51.456;7.248;2022-07-24T08:52:37;9.70;;;5.57;;
2934;SDS011;2462;51.456;7.248;2022-07-24T08:55:04;5.93;;;5.43;;
2934;SDS011;2462;51.456;7.248;2022-07-24T08:57:30;9.60;;;6.07;;
2934;SDS011;2462;51.456;7.248;2022-07-24T08:59:56;7.40;;;6.70;;
2934;SDS011;2462;51.456;7.248;2022-07-24T09:02:21;6.37;;;5.77;;
2934;SDS011;2462;51.456;7.248;2022-07-24T09:04:47;9.17;;;6.60;;
2934;SDS011;2462;51.456;7.248;2022-07-24T09:07:17;7.97;;;6.67;;
2934;SDS011;2462;51.456;7.248;2022-07-24T09:09:45;7.10;;;6.00;;
2934;SDS011;2462;51.456;7.248;2022-07-24T09:12:29;7.43;;;6.63;;
2934;SDS011;2462;51.456;7.248;2022-07-24T09:14:59;9.23;;;7.20;;
2934;SDS011;2462;51.456;7.248;2022-07-24T09:17:25;6.97;;;6.27;;
2934;SDS011;2462;51.456;7.248;2022-07-24T09:19:58;7.23;;;6.57;;
2934;SDS011;2462;51.456;7.248;2022-07-24T09:27:39;7.70;;;7.00;;
2934;SDS011;2462;51.456;7.248;2022-07-24T09:35:28;7.17;;;6.47;;
2934;SDS011;2462;51.456;7.248;2022-07-24T09:37:58;7.00;;;6.40;;
2934;SDS011;2462;51.456;7.248;2022-07-24T09:40:29;6.90;;;6.20;;
2934;SDS011;2462;51.456;7.248;2022-07-24T09:43:11;7.40;;;6.70;;
2934;SDS011;2462;51.456;7.248;2022-07-24T09:51:04;7.23;;;6.53;;
2934;SDS011;2462;51.456;7.248;2022-07-24T09:53:35;8.00;;;6.30;;
2934;SDS011;2462;51.456;7.248;2022-07-24T09:58:33;7.70;;;6.70;;
2934;SDS011;2462;51.456;7.248;2022-07-24T10:01:00;6.30;;;5.70;;
2934;SDS011;2462;51.456;7.248;2022-07-24T10:03:28;6.50;;;5.90;;
2934;SDS011;2462;51.456;7.248;2022-07-24T10:05:56;9.97;;;7.00;;
2934;SDS011;2462;51.456;7.248;2022-07-24T10:11:01;8.17;;;6.40;;
2934;SDS011;2462;51.456;7.248;2022-07-24T10:13:28;10.20;;;7.30;;
2934;SDS011;2462;51.456;7.248;2022-07-24T10:18:48;6.70;;;6.10;;
2934;SDS011;2462;51.456;7.248;2022-07-24T10:26:33;9.57;;;6.83;;
2934;SDS011;2462;51.456;7.248;2022-07-24T10:29:07;10.30;;;6.43;;
2934;SDS011;2462;51.456;7.248;2022-07-24T10:31:42;9.23;;;7.00;;
2934;SDS011;2462;51.456;7.248;2022-07-24T10:34:18;8.00;;;7.20;;
2934;SDS011;2462;51.456;7.248;2022-07-24T10:37:13;7.50;;;6.67;;
2934;SDS011;2462;51.456;7.248;2022-07-24T10:39:47;7.07;;;6.47;;
2934;SDS011;2462;51.456;7.248;2022-07-24T10:42:33;8.30;;;6.70;;
2934;SDS011;2462;51.456;7.248;2022-07-24T10:45:18;7.57;;;6.80;;
2934;SDS011;2462;51.456;7.248;2022-07-24T10:47:44;7.53;;;6.77;;
2934;SDS011;2462;51.456;7.248;2022-07-24T10:50:11;6.70;;;6.10;;
2934;SDS011;2462;51.456;7.248;2022-07-24T10:52:37;8.30;;;6.37;;
2934;SDS011;2462;51.456;7.248;2022-07-24T10:57:56;6.70;;;6.10;;
2934;SDS011;2462;51.456;7.248;2022-07-24T11:00:31;6.50;;;5.70;;
2934;SDS011;2462;51.456;7.248;2022-07-24T11:03:03;7.83;;;7.03;;
2934;SDS011;2462;51.456;7.248;2022-07-24T11:18:42;7.17;;;6.47;;
2934;SDS011;2462;51.456;7.248;2022-07-24T11:21:33;7.77;;;6.83;;
2934;SDS011;2462;51.456;7.248;2022-07-24T11:29:30;6.97;;;6.20;;
2934;SDS011;2462;51.456;7.248;2022-07-24T11:34:27;8.00;;;6.30;;
2934;SDS011;2462;51.456;7.248;2022-07-24T11:36:53;6.47;;;5.80;;
2934;SDS011;2462;51.456;7.248;2022-07-24T11:39:26;7.20;;;6.57;;
2934;SDS011;2462;51.456;7.248;2022-07-24T11:42:03;7.60;;;6.47;;
2934;SDS011;2462;51.456;7.248;2022-07-24T11:44:34;9.10;;;6.60;;
2934;SDS011;2462;51.456;7.248;2022-07-24T11:47:06;8.60;;;6.77;;
2934;SDS011;2462;51.456;7.248;2022-07-24T11:49:54;7.07;;;6.37;;
2934;SDS011;2462;51.456;7.248;2022-07-24T11:52:35;6.90;;;5.77;;
2934;SDS011;2462;51.456;7.248;2022-07-24T11:57:32;8.60;;;7.10;;
2934;SDS011;2462;51.456;7.248;2022-07-24T11:59:59;8.07;;;5.53;;
2934;SDS011;2462;51.456;7.248;2022-07-24T12:02:24;9.37;;;6.53;;
2934;SDS011;2462;51.456;7.248;2022-07-24T12:04:51;6.83;;;6.00;;
2934;SDS011;2462;51.456;7.248;2022-07-24T12:07:22;9.53;;;6.03;;
2934;SDS011;2462;51.456;7.248;2022-07-24T12:10:07;6.73;;;6.07;;
2934;SDS011;2462;51.456;7.248;2022-07-24T12:12:37;8.07;;;6.47;;
2934;SDS011;2462;51.456;7.248;2022-07-24T12:15:05;6.63;;;6.03;;
2934;SDS011;2462;51.456;7.248;2022-07-24T12:17:32;8.73;;;5.87;;
2934;SDS011;2462;51.456;7.248;2022-07-24T12:20:19;6.30;;;5.70;;
2934;SDS011;2462;51.456;7.248;2022-07-24T12:22:49;5.87;;;5.13;;
2934;SDS011;2462;51.456;7.248;2022-07-24T12:25:15;6.60;;;4.93;;
2934;SDS011;2462;51.456;7.248;2022-07-24T12:27:42;4.67;;;4.23;;
2934;SDS011;2462;51.456;7.248;2022-07-24T12:33:02;5.43;;;5.03;;
2934;SDS011;2462;51.456;7.248;2022-07-24T12:35:31;6.03;;;5.47;;
2934;SDS011;2462;51.456;7.248;2022-07-24T12:37:59;8.20;;;6.10;;
2934;SDS011;2462;51.456;7.248;2022-07-24T12:40:32;7.33;;;5.57;;
2934;SDS011;2462;51.456;7.248;2022-07-24T12:43:04;7.80;;;5.90;;
2934;SDS011;2462;51.456;7.248;2022-07-24T12:45:33;5.97;;;5.47;;
2934;SDS011;2462;51.456;7.248;2022-07-24T12:48:06;6.87;;;6.17;;
2934;SDS011;2462;51.456;7.248;2022-07-24T12:50:31;6.70;;;6.00;;
2934;SDS011;2462;51.456;7.248;2022-07-24T12:53:07;5.50;;;4.90;;
2934;SDS011;2462;51.456;7.248;2022-07-24T12:55:35;6.53;;;5.80;;
2934;SDS011;2462;51.456;7.248;2022-07-24T12:58:02;7.67;;;5.97;;
2934;SDS011;2462;51.456;7.248;2022-07-24T13:00:29;8.40;;;6.23;;
2934;SDS011;2462;51.456;7.248;2022-07-24T13:02:56;6.10;;;5.50;;
2934;SDS011;2462;51.456;7.248;2022-07-24T13:05:38;5.37;;;4.87;;
2934;SDS011;2462;51.456;7.248;2022-07-24T13:08:05;6.70;;;5.67;;
2934;SDS011;2462;51.456;7.248;2022-07-24T13:10:32;6.67;;;5.97;;
2934;SDS011;2462;51.456;7.248;2022-07-24T13:12:58;7.53;;;6.07;;
2934;SDS011;2462;51.456;7.248;2022-07-24T13:15:24;7.03;;;5.40;;
2934;SDS011;2462;51.456;7.248;2022-07-24T13:17:49;7.57;;;5.67;;
2934;SDS011;2462;51.456;7.248;2022-07-24T13:20:15;6.97;;;6.23;;
2934;SDS011;2462;51.456;7.248;2022-07-24T13:22:40;6.30;;;5.73;;
2934;SDS011;2462;51.456;7.248;2022-07-24T13:25:06;8.97;;;5.20;;
2934;SDS011;2462;51.456;7.248;2022-07-24T13:27:32;6.10;;;5.60;;
2934;SDS011;2462;51.456;7.248;2022-07-24T13:29:57;5.83;;;5.33;;
2934;SDS011;2462;51.456;7.248;2022-07-24T13:32:23;6.10;;;5.30;;
2934;SDS011;2462;51.456;7.248;2022-07-24T13:34:49;7.20;;;5.30;;
2934;SDS011;2462;51.456;7.248;2022-07-24T13:37:15;6.60;;;5.50;;
2934;SDS011;2462;51.456;7.248;2022-07-24T13:39:40;5.70;;;5.20;;
2934;SDS011;2462;51.456;7.248;2022-07-24T13:42:07;6.50;;;5.90;;
2934;SDS011;2462;51.456;7.248;2022-07-24T13:44:33;6.57;;;5.60;;
2934;SDS011;2462;51.456;7.248;2022-07-24T13:46:59;6.53;;;5.43;;
2934;SDS011;2462;51.456;7.248;2022-07-24T13:49:25;6.03;;;5.37;;
2934;SDS011;2462;51.456;7.248;2022-07-24T13:51:50;6.20;;;5.60;;
2934;SDS011;2462;51.456;7.248;2022-07-24T13:54:16;5.40;;;4.90;;
2934;SDS011;2462;51.456;7.248;2022-07-24T13:56:42;5.40;;;4.90;;
2934;SDS011;2462;51.456;7.248;2022-07-24T13:59:09;6.67;;;6.07;;
2934;SDS011;2462;51.456;7.248;2022-07-24T14:01:34;6.60;;;5.90;;
2934;SDS011;2462;51.456;7.248;2022-07-24T14:04:01;5.63;;;5.13;;
2934;SDS011;2462;51.456;7.248;2022-07-24T14:06:28;6.37;;;5.73;;
2934;SDS011;2462;51.456;7.248;2022-07-24T14:08:55;6.40;;;5.80;;
2934;SDS011;2462;51.456;7.248;2022-07-24T14:11:20;5.20;;;4.70;;
2934;SDS011;2462;51.456;7.248;2022-07-24T14:13:46;13.40;;;5.47;;
2934;SDS011;2462;51.456;7.248;2022-07-24T14:16:12;5.67;;;5.17;;
2934;SDS011;2462;51.456;7.248;2022-07-24T14:18:37;7.20;;;5.83;;
2934;SDS011;2462;51.456;7.248;2022-07-24T14:21:03;5.00;;;4.50;;
2934;SDS011;2462;51.456;7.248;2022-07-24T14:23:29;6.40;;;5.80;;
2934;SDS011;2462;51.456;7.248;2022-07-24T14:25:54;5.70;;;5.20;;
2934;SDS011;2462;51.456;7.248;2022-07-24T14:28:20;5.83;;;5.23;;
2934;SDS011;2462;51.456;7.248;2022-07-24T14:30:46;7.67;;;5.30;;
2934;SDS011;2462;51.456;7.248;2022-07-24T14:33:11;6.50;;;5.90;;
2934;SDS011;2462;51.456;7.248;2022-07-24T14:35:37;6.03;;;5.53;;
2934;SDS011;2462;51.456;7.248;2022-07-24T14:38:02;5.67;;;5.00;;
2934;SDS011;2462;51.456;7.248;2022-07-24T14:40:28;5.80;;;4.90;;
2934;SDS011;2462;51.456;7.248;2022-07-24T14:42:54;5.57;;;5.07;;
2934;SDS011;2462;51.456;7.248;2022-07-24T14:45:20;6.60;;;5.70;;
2934;SDS011;2462;51.456;7.248;2022-07-24T14:47:46;6.73;;;5.40;;
2934;SDS011;2462;51.456;7.248;2022-07-24T14:50:12;6.83;;;6.17;;
2934;SDS011;2462;51.456;7.248;2022-07-24T14:52:37;5.63;;;5.13;;
2934;SDS011;2462;51.456;7.248;2022-07-24T14:55:04;6.70;;;5.30;;
2934;SDS011;2462;51.456;7.248;2022-07-24T14:57:30;5.93;;;5.30;;
2934;SDS011;2462;51.456;7.248;2022-07-24T14:59:56;6.10;;;5.50;;
2934;SDS011;2462;51.456;7.248;2022-07-24T15:02:21;9.70;;;5.63;;
2934;SDS011;2462;51.456;7.248;2022-07-24T15:04:47;5.87;;;5.13;;
2934;SDS011;2462;51.456;7.248;2022-07-24T15:07:13;6.93;;;5.40;;
2934;SDS011;2462;51.456;7.248;2022-07-24T15:09:38;7.30;;;4.73;;
2934;SDS011;2462;51.456;7.248;2022-07-24T15:12:04;5.50;;;5.00;;
2934;SDS011;2462;51.456;7.248;2022-07-24T15:14:30;5.90;;;5.40;;
2934;SDS011;2462;51.456;7.248;2022-07-24T15:16:55;6.33;;;5.60;;
2934;SDS011;2462;51.456;7.248;2022-07-24T15:19:21;6.20;;;5.03;;
2934;SDS011;2462;51.456;7.248;2022-07-24T15:21:47;6.00;;;5.33;;
2934;SDS011;2462;51.456;7.248;2022-07-24T15:24:12;6.20;;;5.60;;
2934;SDS011;2462;51.456;7.248;2022-07-24T15:26:38;6.20;;;5.70;;
2934;SDS011;2462;51.456;7.248;2022-07-24T15:29:04;6.17;;;5.57;;
2934;SDS011;2462;51.456;7.248;2022-07-24T15:31:30;5.33;;;4.83;;
2934;SDS011;2462;51.456;7.248;2022-07-24T15:33:55;6.70;;;6.20;;
2934;SDS011;2462;51.456;7.248;2022-07-24T15:36:21;5.67;;;5.20;;
2934;SDS011;2462;51.456;7.248;2022-07-24T15:38:47;6.17;;;5.57;;
2934;SDS011;2462;51.456;7.248;2022-07-24T15:41:12;6.50;;;5.20;;
2934;SDS011;2462;51.456;7.248;2022-07-24T15:43:38;7.67;;;4.80;;
2934;SDS011;2462;51.456;7.248;2022-07-24T15:46:03;6.13;;;5.60;;
2934;SDS011;2462;51.456;7.248;2022-07-24T15:48:29;5.53;;;5.03;;
2934;SDS011;2462;51.456;7.248;2022-07-24T15:50:54;6.03;;;5.43;;
2934;SDS011;2462;51.456;7.248;2022-07-24T15:53:20;5.80;;;5.10;;
2934;SDS011;2462;51.456;7.248;2022-07-24T15:55:46;5.90;;;5.40;;
2934;SDS011;2462;51.456;7.248;2022-07-24T15:58:12;5.80;;;5.27;;
2934;SDS011;2462;51.456;7.248;2022-07-24T16:00:37;5.90;;;5.30;;
2934;SDS011;2462;51.456;7.248;2022-07-24T16:03:03;6.70;;;6.10;;
2934;SDS011;2462;51.456;7.248;2022-07-24T16:05:29;7.23;;;4.90;;
2934;SDS011;2462;51.456;7.248;2022-07-24T16:07:55;9.10;;;5.40;;
2934;SDS011;2462;51.456;7.248;2022-07-24T16:10:21;5.70;;;5.17;;
2934;SDS011;2462;51.456;7.248;2022-07-24T16:12:47;6.20;;;5.60;;